Estación Meteorológica Peña el Pijo (Robertgarden) [ 09/23/18 02:44:50 CEST ]

Fecha Hora Presion(HPa) Temp (°C) Humedad % Rocio (°C) Viento ( m/s) Direccion Lluvia 1Hora(mm) Lluvia 24H(mm) LLuvia Total(mm)
2018-Jul-28 01:01:58 1010.000 19.2 43 6.3         269.36
2018-Jul-28 02:01:44 1010.000 16.8 46 5.0         269.36
2018-Jul-28 03:02:03 1009.600 17.3 45 5.2         269.36
2018-Jul-28 04:02:03 1009.500 17.0 45 4.9         269.36
2018-Jul-28 05:02:13 1009.100 15.8 49 5.1         269.36
2018-Jul-28 06:02:01 1009.100 14.6 52 4.9         269.36
2018-Jul-28 07:01:48 1009.500 13.8 56 5.2         269.36
2018-Jul-28 08:01:53 1009.800 14.9 58 6.7         269.36
2018-Jul-28 09:01:31 1009.700 21.0 49 10.2         269.36
2018-Jul-28 10:01:27 1009.700 28.8 35 11.7         269.36
2018-Jul-28 11:01:32 1009.600 31.7 24 8.4         269.36
2018-Jul-28 12:01:20 1009.600 34.4 19 7.2         269.36
2018-Jul-28 13:01:38 1009.500 36.0 17 6.6         269.36
2018-Jul-28 14:01:52 1009.200 36.1 17 6.7         269.36
2018-Jul-28 15:01:46 1008.700 37.9 17 8.1         269.36
2018-Jul-28 16:01:37 1008.800 38.8 17 8.8         269.36
2018-Jul-28 17:01:55 1008.900 36.8 17 7.2 2.3 N     269.36
2018-Jul-28 18:01:56 1008.900 35.4 15 4.1 3.3 N     269.36
2018-Jul-28 19:01:50 1008.900 34.1 15 3.1         269.36
2018-Jul-28 20:01:51 1009.500 31.8 19 5.2         269.36
2018-Jul-28 21:01:45 1010.000 28.1 20 3.1         269.36
2018-Jul-28 22:01:45 1010.800 23.5 26 2.7         269.36
2018-Jul-28 23:01:46 1011.500 19.9 35 3.9         269.36

Temperatura Máxima:38°    Temperatura Mínima:13°
Presión Máxima:1011.500 Hpa    Presión Mínima:1008.700 Hpa


Volver